East Wenatchee, Washington
Current Conditions -  °F | °C
As of 11:03 PM on Friday 24 Oct 2014 (Local Time) from KEAT Reporting Station
Light Rain Light Rain  
Wind Chill: 45°   Ceiling: 400
Heat Index: 48°   Visibility: 5mi
Dew Point: 44°   Wind: 6mph
Humidity: 86%   Direction: 270°W
Pressure: 29.96"   Gusts: NA
Location:  47.42°N, 120.29°W
Report Text: KEAT 250603Z AUTO 27005KT 5SM -RA BR OVC004 09/07 A2996 RMK AO2 CIG 002V008 P0000 T00890067
Loading
Personal Weather Stations






























Interactive Weather Map
Tropical Storm Tracking
New forecast layout! Learn more

10-Day Weather Forecast

Advertisements
Track Severe Weather on mobile